sensor_id;sensor_type;location;lat;lon;timestamp;P1;durP1;ratioP1;P2;durP2;ratioP2
33150;SDS011;19508;42.578;23.416;2022-11-14T00:02:16;41.00;;;17.00;;
33150;SDS011;19508;42.578;23.416;2022-11-14T00:04:45;33.83;;;16.08;;
33150;SDS011;19508;42.578;23.416;2022-11-14T00:07:11;32.63;;;14.65;;
33150;SDS011;19508;42.578;23.416;2022-11-14T00:09:37;32.42;;;15.00;;
33150;SDS011;19508;42.578;23.416;2022-11-14T00:12:04;27.02;;;12.80;;
33150;SDS011;19508;42.578;23.416;2022-11-14T00:14:30;33.05;;;15.02;;
33150;SDS011;19508;42.578;23.416;2022-11-14T00:16:55;29.65;;;13.52;;
33150;SDS011;19508;42.578;23.416;2022-11-14T00:19:20;31.73;;;13.35;;
33150;SDS011;19508;42.578;23.416;2022-11-14T00:21:46;27.23;;;13.73;;
33150;SDS011;19508;42.578;23.416;2022-11-14T00:24:11;34.08;;;15.82;;
33150;SDS011;19508;42.578;23.416;2022-11-14T00:26:37;31.65;;;14.25;;
33150;SDS011;19508;42.578;23.416;2022-11-14T00:29:02;30.40;;;13.65;;
33150;SDS011;19508;42.578;23.416;2022-11-14T00:31:28;29.75;;;12.68;;
33150;SDS011;19508;42.578;23.416;2022-11-14T00:33:53;29.38;;;12.25;;
33150;SDS011;19508;42.578;23.416;2022-11-14T00:36:19;28.13;;;13.82;;
33150;SDS011;19508;42.578;23.416;2022-11-14T00:38:44;30.35;;;13.80;;
33150;SDS011;19508;42.578;23.416;2022-11-14T00:41:11;25.90;;;11.73;;
33150;SDS011;19508;42.578;23.416;2022-11-14T00:43:36;40.50;;;16.67;;
33150;SDS011;19508;42.578;23.416;2022-11-14T00:46:02;29.80;;;14.63;;
33150;SDS011;19508;42.578;23.416;2022-11-14T00:48:28;31.55;;;12.43;;
33150;SDS011;19508;42.578;23.416;2022-11-14T00:50:54;24.92;;;11.88;;
33150;SDS011;19508;42.578;23.416;2022-11-14T00:53:19;24.92;;;12.10;;
33150;SDS011;19508;42.578;23.416;2022-11-14T00:55:44;29.77;;;12.50;;
33150;SDS011;19508;42.578;23.416;2022-11-14T00:58:10;30.85;;;12.35;;
33150;SDS011;19508;42.578;23.416;2022-11-14T01:00:35;44.45;;;17.42;;
33150;SDS011;19508;42.578;23.416;2022-11-14T01:03:01;46.88;;;22.52;;
33150;SDS011;19508;42.578;23.416;2022-11-14T01:05:26;34.65;;;15.45;;
33150;SDS011;19508;42.578;23.416;2022-11-14T01:07:52;29.90;;;13.88;;
33150;SDS011;19508;42.578;23.416;2022-11-14T01:10:18;25.95;;;12.77;;
33150;SDS011;19508;42.578;23.416;2022-11-14T01:12:45;32.10;;;14.38;;
33150;SDS011;19508;42.578;23.416;2022-11-14T01:15:10;30.30;;;14.18;;
33150;SDS011;19508;42.578;23.416;2022-11-14T01:17:36;28.65;;;12.30;;
33150;SDS011;19508;42.578;23.416;2022-11-14T01:20:01;26.23;;;12.45;;
33150;SDS011;19508;42.578;23.416;2022-11-14T01:22:28;24.50;;;11.70;;
33150;SDS011;19508;42.578;23.416;2022-11-14T01:24:54;29.05;;;13.52;;
33150;SDS011;19508;42.578;23.416;2022-11-14T01:27:22;33.65;;;15.75;;
33150;SDS011;19508;42.578;23.416;2022-11-14T01:29:48;34.55;;;15.82;;
33150;SDS011;19508;42.578;23.416;2022-11-14T01:32:13;32.40;;;14.07;;
33150;SDS011;19508;42.578;23.416;2022-11-14T01:34:39;29.20;;;14.52;;
33150;SDS011;19508;42.578;23.416;2022-11-14T01:37:04;25.85;;;13.25;;
33150;SDS011;19508;42.578;23.416;2022-11-14T01:39:30;27.70;;;13.70;;
33150;SDS011;19508;42.578;23.416;2022-11-14T01:41:55;24.58;;;11.82;;
33150;SDS011;19508;42.578;23.416;2022-11-14T01:47:23;26.80;;;11.20;;
33150;SDS011;19508;42.578;23.416;2022-11-14T01:49:53;24.92;;;11.32;;
33150;SDS011;19508;42.578;23.416;2022-11-14T01:52:23;20.95;;;10.50;;
33150;SDS011;19508;42.578;23.416;2022-11-14T01:54:52;22.15;;;10.32;;
33150;SDS011;19508;42.578;23.416;2022-11-14T01:57:23;23.75;;;11.45;;
33150;SDS011;19508;42.578;23.416;2022-11-14T01:59:52;20.77;;;10.30;;
33150;SDS011;19508;42.578;23.416;2022-11-14T02:02:20;18.45;;;10.25;;
33150;SDS011;19508;42.578;23.416;2022-11-14T02:04:56;28.80;;;12.02;;
33150;SDS011;19508;42.578;23.416;2022-11-14T02:07:26;20.55;;;10.18;;
33150;SDS011;19508;42.578;23.416;2022-11-14T02:09:53;55.83;;;18.35;;
33150;SDS011;19508;42.578;23.416;2022-11-14T02:12:20;58.67;;;21.33;;
33150;SDS011;19508;42.578;23.416;2022-11-14T02:14:47;62.38;;;20.98;;
33150;SDS011;19508;42.578;23.416;2022-11-14T02:17:18;40.60;;;17.08;;
33150;SDS011;19508;42.578;23.416;2022-11-14T02:19:46;29.33;;;15.18;;
33150;SDS011;19508;42.578;23.416;2022-11-14T02:22:13;26.60;;;13.77;;
33150;SDS011;19508;42.578;23.416;2022-11-14T02:24:39;28.92;;;14.02;;
33150;SDS011;19508;42.578;23.416;2022-11-14T02:27:05;25.63;;;13.43;;
33150;SDS011;19508;42.578;23.416;2022-11-14T02:29:33;25.63;;;12.38;;
33150;SDS011;19508;42.578;23.416;2022-11-14T02:31:59;23.63;;;12.00;;
33150;SDS011;19508;42.578;23.416;2022-11-14T02:34:25;29.13;;;13.52;;
33150;SDS011;19508;42.578;23.416;2022-11-14T02:36:50;24.75;;;12.30;;
33150;SDS011;19508;42.578;23.416;2022-11-14T02:39:16;25.00;;;13.35;;
33150;SDS011;19508;42.578;23.416;2022-11-14T02:41:41;23.73;;;13.23;;
33150;SDS011;19508;42.578;23.416;2022-11-14T02:44:07;23.40;;;12.48;;
33150;SDS011;19508;42.578;23.416;2022-11-14T02:46:32;32.03;;;17.85;;
33150;SDS011;19508;42.578;23.416;2022-11-14T02:48:57;25.40;;;14.52;;
33150;SDS011;19508;42.578;23.416;2022-11-14T02:51:23;22.80;;;13.55;;
33150;SDS011;19508;42.578;23.416;2022-11-14T02:53:48;23.38;;;12.73;;
33150;SDS011;19508;42.578;23.416;2022-11-14T02:56:14;24.75;;;13.13;;
33150;SDS011;19508;42.578;23.416;2022-11-14T02:58:39;52.08;;;20.65;;
33150;SDS011;19508;42.578;23.416;2022-11-14T03:01:04;35.20;;;16.77;;
33150;SDS011;19508;42.578;23.416;2022-11-14T03:03:30;51.42;;;20.73;;
33150;SDS011;19508;42.578;23.416;2022-11-14T03:05:59;22.98;;;11.68;;
33150;SDS011;19508;42.578;23.416;2022-11-14T03:08:25;24.95;;;13.32;;
33150;SDS011;19508;42.578;23.416;2022-11-14T03:10:51;22.27;;;12.10;;
33150;SDS011;19508;42.578;23.416;2022-11-14T03:13:17;26.80;;;11.80;;
33150;SDS011;19508;42.578;23.416;2022-11-14T03:15:42;37.47;;;19.33;;
33150;SDS011;19508;42.578;23.416;2022-11-14T03:18:07;38.20;;;16.70;;
33150;SDS011;19508;42.578;23.416;2022-11-14T03:20:33;32.75;;;16.60;;
33150;SDS011;19508;42.578;23.416;2022-11-14T03:22:59;26.83;;;13.35;;
33150;SDS011;19508;42.578;23.416;2022-11-14T03:25:24;24.25;;;12.23;;
33150;SDS011;19508;42.578;23.416;2022-11-14T03:27:50;28.67;;;13.63;;
33150;SDS011;19508;42.578;23.416;2022-11-14T03:30:15;25.27;;;12.05;;
33150;SDS011;19508;42.578;23.416;2022-11-14T03:32:41;22.30;;;11.30;;
33150;SDS011;19508;42.578;23.416;2022-11-14T03:35:07;22.60;;;10.82;;
33150;SDS011;19508;42.578;23.416;2022-11-14T03:37:33;23.70;;;10.73;;
33150;SDS011;19508;42.578;23.416;2022-11-14T03:39:59;23.83;;;11.52;;
33150;SDS011;19508;42.578;23.416;2022-11-14T03:42:24;19.40;;;10.15;;
33150;SDS011;19508;42.578;23.416;2022-11-14T03:44:50;23.90;;;12.68;;
33150;SDS011;19508;42.578;23.416;2022-11-14T03:47:15;24.70;;;11.75;;
33150;SDS011;19508;42.578;23.416;2022-11-14T03:49:41;23.45;;;11.32;;
33150;SDS011;19508;42.578;23.416;2022-11-14T03:52:09;22.67;;;11.60;;
33150;SDS011;19508;42.578;23.416;2022-11-14T03:54:35;26.88;;;11.18;;
33150;SDS011;19508;42.578;23.416;2022-11-14T03:57:00;24.75;;;11.02;;
33150;SDS011;19508;42.578;23.416;2022-11-14T03:59:26;26.05;;;12.07;;
33150;SDS011;19508;42.578;23.416;2022-11-14T04:01:51;25.98;;;12.00;;
33150;SDS011;19508;42.578;23.416;2022-11-14T04:04:17;30.17;;;11.13;;
33150;SDS011;19508;42.578;23.416;2022-11-14T04:06:42;26.77;;;11.65;;
33150;SDS011;19508;42.578;23.416;2022-11-14T04:09:08;24.40;;;11.13;;
33150;SDS011;19508;42.578;23.416;2022-11-14T04:11:34;23.30;;;10.77;;
33150;SDS011;19508;42.578;23.416;2022-11-14T04:13:59;20.90;;;10.90;;
33150;SDS011;19508;42.578;23.416;2022-11-14T04:16:25;29.23;;;11.40;;
33150;SDS011;19508;42.578;23.416;2022-11-14T04:18:50;25.48;;;11.57;;
33150;SDS011;19508;42.578;23.416;2022-11-14T04:21:16;24.38;;;10.93;;
33150;SDS011;19508;42.578;23.416;2022-11-14T04:23:41;34.53;;;14.32;;
33150;SDS011;19508;42.578;23.416;2022-11-14T04:26:06;48.42;;;19.00;;
33150;SDS011;19508;42.578;23.416;2022-11-14T04:28:32;64.55;;;24.08;;
33150;SDS011;19508;42.578;23.416;2022-11-14T04:30:57;55.13;;;23.52;;
33150;SDS011;19508;42.578;23.416;2022-11-14T04:33:24;93.10;;;35.00;;
33150;SDS011;19508;42.578;23.416;2022-11-14T04:35:50;114.45;;;45.67;;
33150;SDS011;19508;42.578;23.416;2022-11-14T04:38:15;71.15;;;35.92;;
33150;SDS011;19508;42.578;23.416;2022-11-14T04:40:46;44.60;;;22.08;;
33150;SDS011;19508;42.578;23.416;2022-11-14T04:43:13;42.20;;;18.25;;
33150;SDS011;19508;42.578;23.416;2022-11-14T04:45:38;28.55;;;14.15;;
33150;SDS011;19508;42.578;23.416;2022-11-14T04:48:04;25.55;;;14.13;;
33150;SDS011;19508;42.578;23.416;2022-11-14T04:50:30;29.65;;;16.50;;
33150;SDS011;19508;42.578;23.416;2022-11-14T04:52:55;47.75;;;25.17;;
33150;SDS011;19508;42.578;23.416;2022-11-14T04:55:20;47.35;;;23.98;;
33150;SDS011;19508;42.578;23.416;2022-11-14T04:57:46;35.47;;;17.55;;
33150;SDS011;19508;42.578;23.416;2022-11-14T05:00:11;46.25;;;23.77;;
33150;SDS011;19508;42.578;23.416;2022-11-14T05:02:37;52.95;;;26.38;;
33150;SDS011;19508;42.578;23.416;2022-11-14T05:05:03;59.47;;;26.75;;
33150;SDS011;19508;42.578;23.416;2022-11-14T05:07:28;77.93;;;36.47;;
33150;SDS011;19508;42.578;23.416;2022-11-14T05:09:54;55.97;;;28.02;;
33150;SDS011;19508;42.578;23.416;2022-11-14T05:12:19;49.70;;;26.88;;
33150;SDS011;19508;42.578;23.416;2022-11-14T05:14:44;44.60;;;23.13;;
33150;SDS011;19508;42.578;23.416;2022-11-14T05:17:10;39.47;;;21.23;;
33150;SDS011;19508;42.578;23.416;2022-11-14T05:19:35;32.47;;;17.23;;
33150;SDS011;19508;42.578;23.416;2022-11-14T05:22:01;30.27;;;16.10;;
33150;SDS011;19508;42.578;23.416;2022-11-14T05:24:26;29.02;;;13.15;;
33150;SDS011;19508;42.578;23.416;2022-11-14T05:26:52;23.67;;;13.32;;
33150;SDS011;19508;42.578;23.416;2022-11-14T05:29:18;26.42;;;15.35;;
33150;SDS011;19508;42.578;23.416;2022-11-14T05:31:43;40.58;;;18.23;;
33150;SDS011;19508;42.578;23.416;2022-11-14T05:34:09;37.65;;;17.65;;
33150;SDS011;19508;42.578;23.416;2022-11-14T05:36:34;31.40;;;14.98;;
33150;SDS011;19508;42.578;23.416;2022-11-14T05:39:00;31.13;;;14.80;;
33150;SDS011;19508;42.578;23.416;2022-11-14T05:41:25;39.03;;;18.45;;
33150;SDS011;19508;42.578;23.416;2022-11-14T05:43:50;37.63;;;17.80;;
33150;SDS011;19508;42.578;23.416;2022-11-14T05:46:16;35.60;;;18.35;;
33150;SDS011;19508;42.578;23.416;2022-11-14T05:48:41;37.80;;;16.02;;
33150;SDS011;19508;42.578;23.416;2022-11-14T05:51:09;28.65;;;14.23;;
33150;SDS011;19508;42.578;23.416;2022-11-14T05:53:36;52.05;;;16.92;;
33150;SDS011;19508;42.578;23.416;2022-11-14T05:56:05;35.25;;;16.38;;
33150;SDS011;19508;42.578;23.416;2022-11-14T05:58:33;37.72;;;16.27;;
33150;SDS011;19508;42.578;23.416;2022-11-14T06:03:31;24.92;;;13.15;;
33150;SDS011;19508;42.578;23.416;2022-11-14T06:06:02;33.78;;;18.30;;
33150;SDS011;19508;42.578;23.416;2022-11-14T06:08:30;22.30;;;11.02;;
33150;SDS011;19508;42.578;23.416;2022-11-14T06:10:58;24.40;;;11.68;;
33150;SDS011;19508;42.578;23.416;2022-11-14T06:13:27;40.53;;;15.40;;
33150;SDS011;19508;42.578;23.416;2022-11-14T06:15:52;26.25;;;12.98;;
33150;SDS011;19508;42.578;23.416;2022-11-14T06:18:22;22.20;;;10.45;;
33150;SDS011;19508;42.578;23.416;2022-11-14T06:20:48;15.30;;;8.75;;
33150;SDS011;19508;42.578;23.416;2022-11-14T06:23:13;22.08;;;11.45;;
33150;SDS011;19508;42.578;23.416;2022-11-14T06:25:38;19.02;;;9.50;;
33150;SDS011;19508;42.578;23.416;2022-11-14T06:28:04;18.95;;;9.70;;
33150;SDS011;19508;42.578;23.416;2022-11-14T06:30:29;21.35;;;10.45;;
33150;SDS011;19508;42.578;23.416;2022-11-14T06:32:55;19.42;;;10.38;;
33150;SDS011;19508;42.578;23.416;2022-11-14T06:35:23;15.55;;;9.23;;
33150;SDS011;19508;42.578;23.416;2022-11-14T06:37:48;17.30;;;9.70;;
33150;SDS011;19508;42.578;23.416;2022-11-14T06:40:14;15.80;;;9.32;;
33150;SDS011;19508;42.578;23.416;2022-11-14T06:42:39;17.90;;;8.93;;
33150;SDS011;19508;42.578;23.416;2022-11-14T06:45:05;17.48;;;9.32;;
33150;SDS011;19508;42.578;23.416;2022-11-14T06:47:31;15.40;;;8.45;;
33150;SDS011;19508;42.578;23.416;2022-11-14T06:49:56;17.23;;;9.77;;
33150;SDS011;19508;42.578;23.416;2022-11-14T06:52:22;17.73;;;9.90;;
33150;SDS011;19508;42.578;23.416;2022-11-14T06:54:47;17.52;;;9.25;;
33150;SDS011;19508;42.578;23.416;2022-11-14T06:57:12;14.00;;;8.25;;
33150;SDS011;19508;42.578;23.416;2022-11-14T06:59:38;16.05;;;9.00;;
33150;SDS011;19508;42.578;23.416;2022-11-14T07:02:03;15.88;;;9.18;;
33150;SDS011;19508;42.578;23.416;2022-11-14T07:04:29;15.60;;;8.30;;
33150;SDS011;19508;42.578;23.416;2022-11-14T07:06:54;14.65;;;8.50;;
33150;SDS011;19508;42.578;23.416;2022-11-14T07:09:19;15.90;;;9.27;;
33150;SDS011;19508;42.578;23.416;2022-11-14T07:11:45;15.73;;;9.30;;
33150;SDS011;19508;42.578;23.416;2022-11-14T07:14:11;14.77;;;8.68;;
33150;SDS011;19508;42.578;23.416;2022-11-14T07:16:37;17.23;;;8.75;;
33150;SDS011;19508;42.578;23.416;2022-11-14T07:19:03;15.63;;;8.20;;
33150;SDS011;19508;42.578;23.416;2022-11-14T07:21:30;16.05;;;8.88;;
33150;SDS011;19508;42.578;23.416;2022-11-14T07:23:56;21.60;;;11.95;;
33150;SDS011;19508;42.578;23.416;2022-11-14T07:26:22;18.55;;;9.77;;
33150;SDS011;19508;42.578;23.416;2022-11-14T07:28:47;14.48;;;8.57;;
33150;SDS011;19508;42.578;23.416;2022-11-14T07:31:14;15.73;;;9.60;;
33150;SDS011;19508;42.578;23.416;2022-11-14T07:33:42;16.27;;;10.23;;
33150;SDS011;19508;42.578;23.416;2022-11-14T07:36:08;13.95;;;8.77;;
33150;SDS011;19508;42.578;23.416;2022-11-14T07:38:35;15.40;;;8.88;;
33150;SDS011;19508;42.578;23.416;2022-11-14T07:41:06;15.50;;;8.80;;
33150;SDS011;19508;42.578;23.416;2022-11-14T07:43:33;14.23;;;8.32;;
33150;SDS011;19508;42.578;23.416;2022-11-14T07:46:06;13.23;;;7.97;;
33150;SDS011;19508;42.578;23.416;2022-11-14T07:48:34;15.18;;;8.98;;
33150;SDS011;19508;42.578;23.416;2022-11-14T07:51:00;13.90;;;8.00;;
33150;SDS011;19508;42.578;23.416;2022-11-14T07:53:26;14.57;;;7.57;;
33150;SDS011;19508;42.578;23.416;2022-11-14T07:55:53;12.63;;;8.25;;
33150;SDS011;19508;42.578;23.416;2022-11-14T07:58:19;11.93;;;7.43;;
33150;SDS011;19508;42.578;23.416;2022-11-14T08:00:44;12.50;;;7.97;;
33150;SDS011;19508;42.578;23.416;2022-11-14T08:03:09;10.18;;;7.13;;
33150;SDS011;19508;42.578;23.416;2022-11-14T08:05:35;11.77;;;8.00;;
33150;SDS011;19508;42.578;23.416;2022-11-14T08:08:00;11.70;;;7.47;;
33150;SDS011;19508;42.578;23.416;2022-11-14T08:10:26;12.07;;;7.50;;
33150;SDS011;19508;42.578;23.416;2022-11-14T08:12:58;12.73;;;7.00;;
33150;SDS011;19508;42.578;23.416;2022-11-14T08:15:25;10.77;;;6.90;;
33150;SDS011;19508;42.578;23.416;2022-11-14T08:17:51;13.52;;;8.77;;
33150;SDS011;19508;42.578;23.416;2022-11-14T08:20:17;18.25;;;11.57;;
33150;SDS011;19508;42.578;23.416;2022-11-14T08:22:42;23.95;;;13.38;;
33150;SDS011;19508;42.578;23.416;2022-11-14T08:25:08;27.45;;;14.15;;
33150;SDS011;19508;42.578;23.416;2022-11-14T08:27:33;25.08;;;14.75;;
33150;SDS011;19508;42.578;23.416;2022-11-14T08:29:59;33.60;;;17.23;;
33150;SDS011;19508;42.578;23.416;2022-11-14T08:32:24;26.92;;;15.73;;
33150;SDS011;19508;42.578;23.416;2022-11-14T08:34:50;29.83;;;13.68;;
33150;SDS011;19508;42.578;23.416;2022-11-14T08:37:15;25.92;;;13.85;;
33150;SDS011;19508;42.578;23.416;2022-11-14T08:39:41;32.45;;;15.75;;
33150;SDS011;19508;42.578;23.416;2022-11-14T08:42:06;27.45;;;15.43;;
33150;SDS011;19508;42.578;23.416;2022-11-14T08:44:31;30.90;;;17.00;;
33150;SDS011;19508;42.578;23.416;2022-11-14T08:46:57;30.95;;;16.25;;
33150;SDS011;19508;42.578;23.416;2022-11-14T08:49:24;30.85;;;16.80;;
33150;SDS011;19508;42.578;23.416;2022-11-14T08:51:53;29.67;;;18.30;;
33150;SDS011;19508;42.578;23.416;2022-11-14T08:54:19;34.50;;;18.40;;
33150;SDS011;19508;42.578;23.416;2022-11-14T08:56:45;37.50;;;19.17;;
33150;SDS011;19508;42.578;23.416;2022-11-14T08:59:10;34.28;;;19.70;;
33150;SDS011;19508;42.578;23.416;2022-11-14T09:01:35;37.83;;;20.67;;
33150;SDS011;19508;42.578;23.416;2022-11-14T09:04:01;36.97;;;19.13;;
33150;SDS011;19508;42.578;23.416;2022-11-14T09:06:26;33.28;;;18.55;;
33150;SDS011;19508;42.578;23.416;2022-11-14T09:08:52;35.20;;;18.90;;
33150;SDS011;19508;42.578;23.416;2022-11-14T09:11:18;50.28;;;25.02;;
33150;SDS011;19508;42.578;23.416;2022-11-14T09:13:44;40.97;;;22.50;;
33150;SDS011;19508;42.578;23.416;2022-11-14T09:16:09;42.15;;;23.17;;
33150;SDS011;19508;42.578;23.416;2022-11-14T09:18:35;42.00;;;21.38;;
33150;SDS011;19508;42.578;23.416;2022-11-14T09:21:01;39.30;;;20.77;;
33150;SDS011;19508;42.578;23.416;2022-11-14T09:23:31;42.72;;;22.48;;
33150;SDS011;19508;42.578;23.416;2022-11-14T09:25:57;41.58;;;21.67;;
33150;SDS011;19508;42.578;23.416;2022-11-14T09:28:23;44.08;;;21.05;;
33150;SDS011;19508;42.578;23.416;2022-11-14T09:30:49;41.08;;;21.98;;
33150;SDS011;19508;42.578;23.416;2022-11-14T09:33:14;42.22;;;21.63;;
33150;SDS011;19508;42.578;23.416;2022-11-14T09:35:40;47.38;;;24.83;;
33150;SDS011;19508;42.578;23.416;2022-11-14T09:38:07;42.25;;;22.05;;
33150;SDS011;19508;42.578;23.416;2022-11-14T09:43:33;45.08;;;21.65;;
33150;SDS011;19508;42.578;23.416;2022-11-14T09:46:24;40.90;;;21.50;;
33150;SDS011;19508;42.578;23.416;2022-11-14T09:49:01;47.38;;;24.77;;
33150;SDS011;19508;42.578;23.416;2022-11-14T09:51:28;53.90;;;26.45;;
33150;SDS011;19508;42.578;23.416;2022-11-14T09:56:37;55.80;;;26.75;;
33150;SDS011;19508;42.578;23.416;2022-11-14T09:59:12;38.03;;;19.23;;
33150;SDS011;19508;42.578;23.416;2022-11-14T10:07:18;46.53;;;23.30;;
33150;SDS011;19508;42.578;23.416;2022-11-14T10:15:13;51.53;;;24.38;;
33150;SDS011;19508;42.578;23.416;2022-11-14T10:20:56;54.58;;;24.75;;
33150;SDS011;19508;42.578;23.416;2022-11-14T10:26:27;46.42;;;23.17;;
33150;SDS011;19508;42.578;23.416;2022-11-14T10:34:26;53.15;;;27.35;;
33150;SDS011;19508;42.578;23.416;2022-11-14T10:40:18;44.67;;;24.67;;
33150;SDS011;19508;42.578;23.416;2022-11-14T10:45:53;47.55;;;24.50;;
33150;SDS011;19508;42.578;23.416;2022-11-14T10:48:34;47.78;;;23.05;;
33150;SDS011;19508;42.578;23.416;2022-11-14T10:53:50;48.45;;;25.85;;
33150;SDS011;19508;42.578;23.416;2022-11-14T10:56:19;46.83;;;26.05;;
33150;SDS011;19508;42.578;23.416;2022-11-14T10:58:45;48.25;;;25.75;;
33150;SDS011;19508;42.578;23.416;2022-11-14T11:04:12;48.30;;;25.77;;
33150;SDS011;19508;42.578;23.416;2022-11-14T11:06:51;46.97;;;24.63;;
33150;SDS011;19508;42.578;23.416;2022-11-14T11:10:00;47.25;;;24.13;;
33150;SDS011;19508;42.578;23.416;2022-11-14T11:12:45;48.70;;;26.10;;
33150;SDS011;19508;42.578;23.416;2022-11-14T11:18:04;50.40;;;26.02;;
33150;SDS011;19508;42.578;23.416;2022-11-14T11:20:59;51.33;;;27.50;;
33150;SDS011;19508;42.578;23.416;2022-11-14T11:23:28;54.67;;;28.17;;
33150;SDS011;19508;42.578;23.416;2022-11-14T11:26:04;58.42;;;33.33;;
33150;SDS011;19508;42.578;23.416;2022-11-14T11:28:33;88.15;;;44.15;;
33150;SDS011;19508;42.578;23.416;2022-11-14T11:33:26;48.97;;;25.27;;
33150;SDS011;19508;42.578;23.416;2022-11-14T11:36:00;57.60;;;28.25;;
33150;SDS011;19508;42.578;23.416;2022-11-14T11:38:29;59.35;;;29.55;;
33150;SDS011;19508;42.578;23.416;2022-11-14T11:41:03;56.28;;;28.88;;
33150;SDS011;19508;42.578;23.416;2022-11-14T11:46:15;56.20;;;28.27;;
33150;SDS011;19508;42.578;23.416;2022-11-14T11:48:45;63.55;;;29.15;;
33150;SDS011;19508;42.578;23.416;2022-11-14T11:51:16;58.65;;;29.98;;
33150;SDS011;19508;42.578;23.416;2022-11-14T11:53:55;57.83;;;28.25;;
33150;SDS011;19508;42.578;23.416;2022-11-14T11:56:29;59.50;;;28.33;;
33150;SDS011;19508;42.578;23.416;2022-11-14T11:59:03;52.88;;;28.50;;
33150;SDS011;19508;42.578;23.416;2022-11-14T12:01:41;54.28;;;27.80;;
33150;SDS011;19508;42.578;23.416;2022-11-14T12:04:07;56.50;;;26.92;;
33150;SDS011;19508;42.578;23.416;2022-11-14T12:06:34;51.65;;;26.95;;
33150;SDS011;19508;42.578;23.416;2022-11-14T12:09:11;59.70;;;26.70;;
33150;SDS011;19508;42.578;23.416;2022-11-14T12:11:49;54.30;;;26.92;;
33150;SDS011;19508;42.578;23.416;2022-11-14T12:22:25;59.97;;;28.63;;
33150;SDS011;19508;42.578;23.416;2022-11-14T12:35:26;56.70;;;28.27;;
33150;SDS011;19508;42.578;23.416;2022-11-14T12:37:58;55.97;;;29.77;;
33150;SDS011;19508;42.578;23.416;2022-11-14T12:42:55;56.13;;;28.25;;
33150;SDS011;19508;42.578;23.416;2022-11-14T12:48:20;52.15;;;27.67;;
33150;SDS011;19508;42.578;23.416;2022-11-14T12:50:55;52.47;;;29.08;;
33150;SDS011;19508;42.578;23.416;2022-11-14T13:06:52;64.95;;;31.25;;
33150;SDS011;19508;42.578;23.416;2022-11-14T13:18:25;62.08;;;31.15;;
33150;SDS011;19508;42.578;23.416;2022-11-14T13:24:00;63.05;;;30.83;;
33150;SDS011;19508;42.578;23.416;2022-11-14T13:28:52;57.72;;;30.42;;
33150;SDS011;19508;42.578;23.416;2022-11-14T13:31:18;62.97;;;31.40;;
33150;SDS011;19508;42.578;23.416;2022-11-14T13:33:49;58.17;;;29.25;;
33150;SDS011;19508;42.578;23.416;2022-11-14T13:50:10;87.90;;;42.00;;
33150;SDS011;19508;42.578;23.416;2022-11-14T13:52:42;93.35;;;47.92;;
33150;SDS011;19508;42.578;23.416;2022-11-14T13:55:20;72.78;;;38.40;;
33150;SDS011;19508;42.578;23.416;2022-11-14T13:58:03;77.60;;;39.30;;
33150;SDS011;19508;42.578;23.416;2022-11-14T14:00:43;81.47;;;38.78;;
33150;SDS011;19508;42.578;23.416;2022-11-14T14:03:31;80.90;;;38.90;;
33150;SDS011;19508;42.578;23.416;2022-11-14T14:06:35;75.32;;;38.53;;
33150;SDS011;19508;42.578;23.416;2022-11-14T14:08:59;71.60;;;37.60;;
33150;SDS011;19508;42.578;23.416;2022-11-14T14:11:36;65.65;;;34.08;;
33150;SDS011;19508;42.578;23.416;2022-11-14T14:17:10;71.55;;;33.20;;
33150;SDS011;19508;42.578;23.416;2022-11-14T14:19:52;62.47;;;31.42;;
33150;SDS011;19508;42.578;23.416;2022-11-14T14:30:30;69.38;;;35.58;;
33150;SDS011;19508;42.578;23.416;2022-11-14T14:33:08;82.43;;;39.30;;
33150;SDS011;19508;42.578;23.416;2022-11-14T14:35:36;67.70;;;26.75;;
33150;SDS011;19508;42.578;23.416;2022-11-14T14:38:04;57.10;;;27.98;;
33150;SDS011;19508;42.578;23.416;2022-11-14T14:40:36;69.72;;;31.08;;
33150;SDS011;19508;42.578;23.416;2022-11-14T14:43:04;62.05;;;28.23;;
33150;SDS011;19508;42.578;23.416;2022-11-14T14:45:43;62.85;;;27.98;;
33150;SDS011;19508;42.578;23.416;2022-11-14T14:48:13;58.55;;;29.48;;
33150;SDS011;19508;42.578;23.416;2022-11-14T14:53:20;75.75;;;36.33;;
33150;SDS011;19508;42.578;23.416;2022-11-14T14:55:52;76.13;;;30.15;;
33150;SDS011;19508;42.578;23.416;2022-11-14T15:00:53;68.10;;;28.77;;
33150;SDS011;19508;42.578;23.416;2022-11-14T15:03:19;86.45;;;30.35;;
33150;SDS011;19508;42.578;23.416;2022-11-14T15:05:46;61.95;;;27.70;;
33150;SDS011;19508;42.578;23.416;2022-11-14T15:08:13;50.33;;;24.50;;
33150;SDS011;19508;42.578;23.416;2022-11-14T15:10:40;55.33;;;26.95;;
33150;SDS011;19508;42.578;23.416;2022-11-14T15:13:07;59.30;;;27.77;;
33150;SDS011;19508;42.578;23.416;2022-11-14T15:15:38;47.27;;;21.20;;
33150;SDS011;19508;42.578;23.416;2022-11-14T15:18:04;81.25;;;36.08;;
33150;SDS011;19508;42.578;23.416;2022-11-14T15:20:31;90.18;;;37.42;;
33150;SDS011;19508;42.578;23.416;2022-11-14T15:23:00;151.13;;;71.03;;
33150;SDS011;19508;42.578;23.416;2022-11-14T15:25:27;112.70;;;51.65;;
33150;SDS011;19508;42.578;23.416;2022-11-14T15:27:54;89.90;;;45.42;;
33150;SDS011;19508;42.578;23.416;2022-11-14T15:30:24;70.20;;;32.80;;
33150;SDS011;19508;42.578;23.416;2022-11-14T15:32:52;59.53;;;27.65;;
33150;SDS011;19508;42.578;23.416;2022-11-14T15:38:04;67.88;;;32.10;;
33150;SDS011;19508;42.578;23.416;2022-11-14T15:40:42;72.88;;;33.40;;
33150;SDS011;19508;42.578;23.416;2022-11-14T15:43:45;72.95;;;34.17;;
33150;SDS011;19508;42.578;23.416;2022-11-14T15:46:25;73.85;;;31.67;;
33150;SDS011;19508;42.578;23.416;2022-11-14T15:48:50;83.13;;;34.88;;
33150;SDS011;19508;42.578;23.416;2022-11-14T15:51:16;70.40;;;32.58;;
33150;SDS011;19508;42.578;23.416;2022-11-14T15:53:43;71.68;;;34.85;;
33150;SDS011;19508;42.578;23.416;2022-11-14T15:56:11;78.93;;;34.90;;
33150;SDS011;19508;42.578;23.416;2022-11-14T15:58:41;83.25;;;38.10;;
33150;SDS011;19508;42.578;23.416;2022-11-14T16:01:09;86.78;;;36.70;;
33150;SDS011;19508;42.578;23.416;2022-11-14T16:03:43;71.88;;;32.35;;
33150;SDS011;19508;42.578;23.416;2022-11-14T16:06:12;93.63;;;33.05;;
33150;SDS011;19508;42.578;23.416;2022-11-14T16:08:37;70.80;;;28.67;;
33150;SDS011;19508;42.578;23.416;2022-11-14T16:11:03;102.45;;;34.58;;
33150;SDS011;19508;42.578;23.416;2022-11-14T16:13:30;71.95;;;32.30;;
33150;SDS011;19508;42.578;23.416;2022-11-14T16:15:56;79.60;;;35.03;;
33150;SDS011;19508;42.578;23.416;2022-11-14T16:18:21;65.28;;;31.08;;
33150;SDS011;19508;42.578;23.416;2022-11-14T16:20:47;87.40;;;31.40;;
33150;SDS011;19508;42.578;23.416;2022-11-14T16:23:12;58.10;;;26.52;;
33150;SDS011;19508;42.578;23.416;2022-11-14T16:25:38;69.75;;;32.03;;
33150;SDS011;19508;42.578;23.416;2022-11-14T16:28:03;69.20;;;33.33;;
33150;SDS011;19508;42.578;23.416;2022-11-14T16:30:29;64.38;;;26.00;;
33150;SDS011;19508;42.578;23.416;2022-11-14T16:32:54;60.55;;;28.38;;
33150;SDS011;19508;42.578;23.416;2022-11-14T16:35:21;63.70;;;23.90;;